Time;durP1;ratioP1;P1;durP2;ratioP2;P2;SDS_P1;SDS_P2;PMS_P1;PMS_P2;Temp;Humidity;BMP_temperature;BMP_pressure;BME280_temperature;BME280_humidity;BME280_pressure;Samples;Min_cycle;Max_cycle;Signal;HPM_P1;HPM_P2
2023/04/09 00:01:41;;;;;;;96.93;59.65;;;9.80;99.90;;;;;;5103405;28;20435;-78
2023/04/09 00:04:07;;;;;;;96.43;60.33;;;9.90;99.90;;;;;;5106890;28;20404;-78
2023/04/09 00:06:32;;;;;;;98.43;60.40;;;9.90;99.90;;;;;;5104044;28;20804;-76
2023/04/09 00:08:58;;;;;;;94.73;58.23;;;9.90;99.90;;;;;;5105623;28;20944;-76
2023/04/09 00:11:23;;;;;;;95.50;59.27;;;9.80;99.90;;;;;;5104387;28;20408;-78
2023/04/09 00:13:49;;;;;;;97.28;60.42;;;9.80;99.90;;;;;;5088315;28;20844;-78
2023/04/09 00:16:15;;;;;;;95.77;60.03;;;9.80;99.90;;;;;;5104462;28;20457;-76
2023/04/09 00:18:40;;;;;;;93.20;59.47;;;9.80;99.90;;;;;;5094196;28;20904;-76
2023/04/09 00:21:07;;;;;;;88.90;56.38;;;9.80;99.90;;;;;;5089599;28;20577;-78
2023/04/09 00:23:33;;;;;;;87.45;55.17;;;9.80;99.90;;;;;;5105187;28;20489;-78
2023/04/09 00:25:59;;;;;;;80.45;52.10;;;9.80;99.90;;;;;;5105670;28;20400;-78
2023/04/09 00:28:25;;;;;;;75.93;49.55;;;9.70;99.90;;;;;;5110493;28;20411;-78
2023/04/09 00:30:51;;;;;;;78.87;51.00;;;9.60;99.90;;;;;;5094975;28;20404;-78
2023/04/09 00:33:16;;;;;;;74.22;48.63;;;9.60;99.90;;;;;;5109278;28;20412;-76
2023/04/09 00:35:42;;;;;;;63.40;42.73;;;9.60;99.90;;;;;;5095038;28;20429;-78
2023/04/09 00:38:07;;;;;;;57.87;39.13;;;9.60;99.90;;;;;;5109094;28;20412;-78
2023/04/09 00:40:33;;;;;;;59.70;38.90;;;9.60;99.90;;;;;;5105926;28;20419;-76
2023/04/09 00:42:59;;;;;;;61.17;40.53;;;9.60;99.90;;;;;;5107627;28;20432;-78
2023/04/09 00:45:25;;;;;;;65.03;41.73;;;9.60;99.90;;;;;;5105058;28;20405;-78
2023/04/09 00:47:51;;;;;;;61.55;39.92;;;9.60;99.90;;;;;;5106979;28;20437;-78
2023/04/09 00:50:17;;;;;;;63.30;41.40;;;9.60;99.90;;;;;;5104968;28;20739;-78
2023/04/09 00:52:42;;;;;;;63.50;39.73;;;9.60;99.90;;;;;;5107397;28;20405;-78
2023/04/09 00:55:09;;;;;;;61.00;40.20;;;9.60;99.90;;;;;;5093872;28;20817;-78
2023/04/09 00:57:35;;;;;;;63.70;40.53;;;9.70;99.90;;;;;;5098183;28;20562;-78
2023/04/09 01:00:01;;;;;;;62.38;40.03;;;9.70;99.90;;;;;;5106051;28;20424;-78
2023/04/09 01:02:27;;;;;;;59.97;39.67;;;9.70;99.90;;;;;;5109825;28;20509;-78
2023/04/09 01:04:52;;;;;;;60.45;39.75;;;9.70;99.90;;;;;;5077431;28;20424;-78
2023/04/09 01:07:42;;;;;;;60.10;39.43;;;9.70;99.90;;;;;;5110213;28;20404;-78
2023/04/09 01:10:27;;;;;;;58.63;38.37;;;9.70;99.90;;;;;;5084125;28;20412;-76
2023/04/09 01:13:39;;;;;;;61.95;40.47;;;9.70;99.90;;;;;;5106631;28;20484;-77
2023/04/09 01:16:08;;;;;;;60.40;40.05;;;9.70;99.90;;;;;;5075215;28;21001;-76
2023/04/09 01:18:51;;;;;;;61.55;41.15;;;9.70;99.90;;;;;;5097155;28;20406;-76
2023/04/09 01:21:19;;;;;;;61.17;41.30;;;9.70;99.90;;;;;;5105408;28;20414;-76
2023/04/09 01:23:57;;;;;;;63.78;41.25;;;9.70;99.90;;;;;;5108187;28;20404;-77
2023/04/09 01:26:37;;;;;;;63.00;40.15;;;9.60;99.90;;;;;;5084048;28;20407;-76
2023/04/09 01:29:05;;;;;;;65.22;40.63;;;9.60;99.90;;;;;;5103355;28;20899;-76
2023/04/09 01:31:37;;;;;;;63.33;40.72;;;9.60;99.90;;;;;;5079217;28;20406;-76
2023/04/09 01:34:05;;;;;;;59.15;39.30;;;9.60;99.90;;;;;;5082820;28;20760;-76
2023/04/09 01:36:32;;;;;;;59.78;39.28;;;9.60;99.90;;;;;;5090221;28;20402;-76
2023/04/09 01:39:00;;;;;;;60.28;39.70;;;9.60;99.90;;;;;;5090818;28;20489;-76
2023/04/09 01:41:26;;;;;;;60.87;40.00;;;9.60;99.90;;;;;;5088570;28;20402;-76
2023/04/09 01:43:52;;;;;;;56.08;38.67;;;9.60;99.90;;;;;;5091676;28;20414;-76
2023/04/09 01:46:20;;;;;;;57.78;38.63;;;9.60;99.90;;;;;;5073677;28;20407;-77
2023/04/09 01:48:46;;;;;;;58.15;38.72;;;9.60;99.90;;;;;;5091756;28;20770;-76
2023/04/09 01:51:13;;;;;;;59.20;38.58;;;9.60;99.90;;;;;;5095826;28;21435;-77
2023/04/09 01:53:39;;;;;;;54.63;36.63;;;9.60;99.90;;;;;;5086760;28;21037;-76
2023/04/09 01:56:06;;;;;;;55.13;36.33;;;9.50;99.90;;;;;;5088257;28;20485;-76
2023/04/09 01:58:33;;;;;;;53.67;36.35;;;9.50;99.90;;;;;;5088538;28;20811;-76
2023/04/09 02:01:11;;;;;;;56.13;35.77;;;9.50;99.90;;;;;;5087897;28;20442;-76
2023/04/09 02:03:45;;;;;;;55.80;36.20;;;9.50;99.90;;;;;;5076297;28;20421;-76
2023/04/09 02:06:21;;;;;;;54.17;35.42;;;9.50;99.90;;;;;;5088046;28;20524;-76
2023/04/09 02:08:48;;;;;;;52.92;35.03;;;9.50;99.90;;;;;;5098304;28;21096;-76
2023/04/09 02:11:14;;;;;;;52.57;35.03;;;9.60;99.90;;;;;;5105969;28;20475;-77
2023/04/09 02:13:42;;;;;;;49.65;33.40;;;9.50;99.90;;;;;;5105978;28;20396;-76
2023/04/09 02:16:11;;;;;;;51.85;34.22;;;9.50;99.90;;;;;;5087867;28;20465;-76
2023/04/09 02:18:37;;;;;;;48.70;33.67;;;9.50;99.90;;;;;;5094265;28;20399;-76
2023/04/09 02:21:04;;;;;;;52.53;34.22;;;9.50;99.90;;;;;;5108593;28;20400;-76
2023/04/09 02:23:33;;;;;;;51.42;34.65;;;9.50;99.90;;;;;;5088666;28;20429;-76
2023/04/09 02:26:00;;;;;;;51.03;34.67;;;9.50;99.90;;;;;;5088512;28;20500;-76
2023/04/09 02:28:25;;;;;;;50.35;35.20;;;9.50;99.90;;;;;;5087260;28;20410;-76
2023/04/09 02:30:51;;;;;;;54.72;35.05;;;9.40;99.90;;;;;;5088557;28;20809;-76
2023/04/09 02:33:16;;;;;;;53.97;36.17;;;9.50;99.90;;;;;;5092585;28;20492;-76
2023/04/09 02:35:42;;;;;;;51.58;36.25;;;9.40;99.90;;;;;;5106842;28;20405;-77
2023/04/09 02:38:12;;;;;;;53.87;36.57;;;9.50;99.90;;;;;;5086700;28;20901;-77
2023/04/09 02:40:41;;;;;;;54.17;35.43;;;9.50;99.90;;;;;;5105852;28;20405;-76
2023/04/09 02:43:07;;;;;;;51.20;36.53;;;9.50;99.90;;;;;;5091377;28;20456;-77
2023/04/09 02:45:33;;;;;;;51.88;36.72;;;9.50;99.90;;;;;;5103437;28;20408;-77
2023/04/09 02:47:58;;;;;;;55.55;36.20;;;9.50;99.90;;;;;;5101331;28;20396;-77
2023/04/09 02:50:24;;;;;;;55.53;36.10;;;9.50;99.90;;;;;;5104016;28;20762;-76
2023/04/09 02:52:50;;;;;;;53.92;36.20;;;9.50;99.90;;;;;;5104863;28;20467;-76
2023/04/09 02:55:17;;;;;;;55.07;37.93;;;9.40;99.90;;;;;;5107276;28;20403;-76
2023/04/09 02:57:42;;;;;;;53.90;36.20;;;9.50;99.90;;;;;;5104966;28;20415;-76
2023/04/09 03:00:09;;;;;;;52.67;35.80;;;9.50;99.90;;;;;;5107108;28;20396;-76
2023/04/09 03:02:34;;;;;;;54.10;37.10;;;9.40;99.90;;;;;;5105000;28;20454;-76
2023/04/09 03:05:00;;;;;;;58.75;37.50;;;9.40;99.90;;;;;;5094833;28;20750;-76
2023/04/09 03:07:26;;;;;;;60.00;38.77;;;9.40;99.90;;;;;;5105205;28;20393;-76
2023/04/09 03:09:51;;;;;;;54.90;38.40;;;9.40;99.90;;;;;;5094025;28;20410;-77
2023/04/09 03:12:17;;;;;;;56.40;38.10;;;9.40;99.90;;;;;;5098997;28;20498;-76
2023/04/09 03:14:42;;;;;;;56.97;39.47;;;9.40;99.90;;;;;;5085640;28;20406;-76
2023/04/09 03:17:08;;;;;;;61.77;39.07;;;9.30;99.90;;;;;;5087024;28;20486;-76
2023/04/09 03:19:33;;;;;;;53.88;38.08;;;9.30;99.90;;;;;;5085675;28;20409;-76
2023/04/09 03:21:59;;;;;;;52.97;38.30;;;9.40;99.90;;;;;;5091220;28;20515;-76
2023/04/09 03:24:25;;;;;;;55.83;37.95;;;9.30;99.90;;;;;;5078353;28;21027;-76
2023/04/09 03:26:50;;;;;;;55.50;38.17;;;9.30;99.90;;;;;;5093709;28;20398;-77
2023/04/09 03:29:16;;;;;;;54.70;37.90;;;9.30;99.90;;;;;;5095919;28;20401;-76
2023/04/09 03:31:41;;;;;;;54.73;38.13;;;9.30;99.90;;;;;;5093620;28;21016;-76
2023/04/09 03:34:07;;;;;;;56.42;37.67;;;9.30;99.90;;;;;;5094886;28;20424;-78
2023/04/09 03:36:33;;;;;;;58.90;39.27;;;9.20;99.90;;;;;;5094481;28;20492;-75
2023/04/09 03:38:59;;;;;;;61.45;40.17;;;9.30;99.90;;;;;;5093682;28;20921;-75
2023/04/09 03:41:25;;;;;;;58.03;39.45;;;9.20;99.90;;;;;;5093026;28;20932;-75
2023/04/09 03:43:51;;;;;;;56.15;37.70;;;9.20;99.90;;;;;;5077111;28;20755;-76
2023/04/09 03:46:17;;;;;;;59.63;39.53;;;9.20;99.90;;;;;;5093273;28;20409;-76
2023/04/09 03:48:43;;;;;;;56.40;38.85;;;9.10;99.90;;;;;;5095456;28;20423;-76
2023/04/09 03:51:15;;;;;;;60.03;39.33;;;9.10;99.90;;;;;;5092746;28;20493;-76
2023/04/09 03:53:41;;;;;;;59.20;39.22;;;9.10;99.90;;;;;;5100512;28;20483;-76
2023/04/09 03:56:08;;;;;;;60.85;39.30;;;9.10;99.90;;;;;;5086842;28;20974;-76
2023/04/09 03:58:34;;;;;;;62.92;41.03;;;9.10;99.90;;;;;;5087358;28;20399;-75
2023/04/09 04:01:00;;;;;;;63.40;41.45;;;9.10;99.90;;;;;;5088605;28;20441;-76
2023/04/09 04:03:26;;;;;;;61.90;40.83;;;9.10;99.90;;;;;;5090242;28;20578;-76
2023/04/09 04:05:52;;;;;;;59.70;40.80;;;9.10;99.90;;;;;;5091258;28;20897;-76
2023/04/09 04:08:17;;;;;;;60.97;41.80;;;9.10;99.90;;;;;;5091601;28;20504;-76
2023/04/09 04:10:43;;;;;;;60.50;40.50;;;9.10;99.90;;;;;;5089550;28;20450;-76
2023/04/09 04:13:09;;;;;;;64.53;42.43;;;9.00;99.90;;;;;;5091519;28;20398;-76
2023/04/09 04:15:41;;;;;;;64.45;42.95;;;9.00;99.90;;;;;;5096049;28;20400;-76
2023/04/09 04:18:08;;;;;;;66.13;42.88;;;9.00;99.90;;;;;;5097846;28;20488;-76
2023/04/09 04:20:34;;;;;;;66.85;43.38;;;9.00;99.90;;;;;;5097349;28;20396;-76
2023/04/09 04:23:00;;;;;;;63.70;42.90;;;9.00;99.90;;;;;;5096759;28;20429;-76
2023/04/09 04:25:25;;;;;;;67.03;43.67;;;9.00;99.90;;;;;;5090466;28;20788;-76
2023/04/09 04:27:51;;;;;;;62.50;42.60;;;8.90;99.90;;;;;;5102698;28;20400;-76
2023/04/09 04:30:17;;;;;;;65.47;44.50;;;8.90;99.90;;;;;;5107570;28;20416;-76
2023/04/09 04:32:43;;;;;;;67.73;45.13;;;8.90;99.90;;;;;;5096540;28;20485;-78
2023/04/09 04:35:08;;;;;;;68.75;45.55;;;8.90;99.90;;;;;;5089477;28;20406;-78
2023/04/09 04:37:34;;;;;;;68.53;44.03;;;8.90;99.90;;;;;;5102176;28;20457;-78
2023/04/09 04:40:04;;;;;;;70.87;47.23;;;8.90;99.90;;;;;;5100911;28;20749;-78
2023/04/09 04:42:30;;;;;;;70.03;45.80;;;8.90;99.90;;;;;;5100675;28;20443;-76
2023/04/09 04:44:55;;;;;;;69.32;45.65;;;8.90;99.90;;;;;;5103583;28;20909;-78
2023/04/09 04:47:21;;;;;;;71.30;47.17;;;8.90;99.90;;;;;;5105268;28;20875;-78
2023/04/09 04:49:46;;;;;;;70.45;46.90;;;8.90;99.90;;;;;;5104504;28;20554;-78
2023/04/09 04:52:12;;;;;;;70.63;46.63;;;8.90;99.90;;;;;;5081535;28;20427;-78
2023/04/09 04:54:38;;;;;;;71.13;46.13;;;8.90;99.90;;;;;;5103446;28;20409;-78
2023/04/09 04:57:03;;;;;;;73.80;46.90;;;8.90;99.90;;;;;;5103195;28;20400;-77
2023/04/09 04:59:29;;;;;;;76.05;47.08;;;8.90;99.90;;;;;;5109550;28;20429;-78
2023/04/09 05:01:55;;;;;;;71.30;46.87;;;8.90;99.90;;;;;;5109376;28;20874;-78
2023/04/09 05:04:20;;;;;;;70.90;46.42;;;8.90;99.90;;;;;;5107102;28;20396;-78
2023/04/09 05:06:46;;;;;;;71.27;46.33;;;8.90;99.90;;;;;;5107692;28;20773;-78
2023/04/09 05:09:11;;;;;;;75.05;46.75;;;8.90;99.90;;;;;;5110710;27;20425;-78
2023/04/09 05:11:37;;;;;;;71.17;46.73;;;8.90;99.90;;;;;;5106324;28;20396;-78
2023/04/09 05:14:03;;;;;;;72.18;47.40;;;8.90;99.90;;;;;;5106784;28;20475;-78
2023/04/09 05:16:29;;;;;;;72.57;47.03;;;8.90;99.90;;;;;;5108373;28;20408;-78
2023/04/09 05:18:55;;;;;;;70.88;47.05;;;8.90;99.90;;;;;;5105921;28;20407;-78
2023/04/09 05:21:20;;;;;;;70.80;48.37;;;8.90;99.90;;;;;;5096590;28;20452;-76
2023/04/09 05:23:46;;;;;;;69.38;47.25;;;8.90;99.90;;;;;;5104663;28;20901;-76
2023/04/09 05:26:12;;;;;;;71.38;48.35;;;8.90;99.90;;;;;;5107300;28;20415;-76
2023/04/09 05:28:37;;;;;;;73.00;47.37;;;8.90;99.90;;;;;;5099414;28;20907;-76
2023/04/09 05:31:03;;;;;;;71.43;47.33;;;8.90;99.90;;;;;;5099619;28;20410;-76
2023/04/09 05:33:29;;;;;;;73.23;48.63;;;8.90;99.90;;;;;;5104220;28;20388;-76
2023/04/09 05:35:55;;;;;;;69.82;48.08;;;9.00;99.90;;;;;;5088531;28;20838;-76
2023/04/09 05:38:20;;;;;;;73.78;47.70;;;9.00;99.90;;;;;;5103544;28;20404;-76
2023/04/09 05:40:47;;;;;;;71.00;47.27;;;9.00;99.90;;;;;;5107181;28;20392;-76
2023/04/09 05:43:13;;;;;;;72.35;47.95;;;9.00;99.90;;;;;;5103476;28;20424;-76
2023/04/09 05:45:39;;;;;;;71.10;47.97;;;9.00;99.90;;;;;;5105838;28;20847;-79
2023/04/09 05:48:05;;;;;;;69.10;47.38;;;9.00;99.90;;;;;;5092716;28;20408;-78
2023/04/09 05:50:30;;;;;;;70.07;48.23;;;9.00;99.90;;;;;;5106846;28;20480;-76
2023/04/09 05:52:56;;;;;;;72.10;47.78;;;9.00;99.90;;;;;;5089248;28;20481;-76
2023/04/09 05:55:22;;;;;;;73.23;48.20;;;9.10;99.90;;;;;;5089360;28;20483;-76
2023/04/09 05:57:47;;;;;;;72.40;49.60;;;9.10;99.90;;;;;;5087360;28;20406;-76
2023/04/09 06:00:14;;;;;;;69.85;48.20;;;9.10;99.90;;;;;;5087953;28;20835;-76
2023/04/09 06:02:40;;;;;;;76.82;49.88;;;9.10;99.90;;;;;;5092747;28;20432;-76
2023/04/09 06:05:05;;;;;;;70.93;49.22;;;9.10;99.90;;;;;;5090572;28;20407;-76
2023/04/09 06:07:31;;;;;;;74.30;50.93;;;9.10;99.90;;;;;;5106112;28;20412;-76
2023/04/09 06:09:57;;;;;;;74.07;50.07;;;9.10;99.90;;;;;;5106479;28;20392;-76
2023/04/09 06:12:22;;;;;;;71.93;50.55;;;9.10;99.90;;;;;;5105345;28;20421;-76
2023/04/09 06:14:48;;;;;;;73.13;50.23;;;9.10;99.90;;;;;;5090089;28;20423;-77
2023/04/09 06:17:14;;;;;;;74.55;50.35;;;9.20;99.90;;;;;;5093559;28;20400;-76
2023/04/09 06:19:39;;;;;;;73.37;49.90;;;9.10;99.90;;;;;;5105809;28;20423;-76
2023/04/09 06:22:05;;;;;;;73.27;49.83;;;9.10;99.90;;;;;;5103875;28;20867;-77
2023/04/09 06:24:34;;;;;;;74.77;49.90;;;9.20;99.90;;;;;;5106536;28;20511;-76
2023/04/09 06:26:59;;;;;;;73.22;50.55;;;9.10;99.90;;;;;;5102998;28;20863;-76
2023/04/09 06:29:25;;;;;;;73.73;48.97;;;9.20;99.90;;;;;;5105518;28;20495;-77
2023/04/09 06:31:50;;;;;;;71.03;49.10;;;9.10;99.90;;;;;;5103500;28;20461;-77
2023/04/09 06:34:16;;;;;;;67.47;47.45;;;9.20;99.90;;;;;;5106402;28;20404;-77
2023/04/09 06:36:42;;;;;;;65.63;45.90;;;9.30;99.90;;;;;;5103908;28;20488;-76
2023/04/09 06:39:08;;;;;;;68.93;46.28;;;9.20;99.90;;;;;;5105486;28;20499;-76
2023/04/09 06:41:34;;;;;;;68.10;45.85;;;9.20;99.90;;;;;;5104610;28;20404;-76
2023/04/09 06:44:00;;;;;;;60.20;42.45;;;9.20;99.90;;;;;;5105567;28;20507;-76
2023/04/09 06:46:26;;;;;;;58.38;41.00;;;9.20;99.90;;;;;;5102716;28;20412;-76
2023/04/09 06:48:52;;;;;;;57.55;40.35;;;9.20;99.90;;;;;;5106071;28;20917;-76
2023/04/09 06:51:18;;;;;;;57.78;39.60;;;9.20;99.90;;;;;;5092420;28;20490;-76
2023/04/09 06:53:43;;;;;;;53.43;37.60;;;9.20;99.90;;;;;;5079385;28;20501;-76
2023/04/09 06:56:09;;;;;;;50.95;36.85;;;9.20;99.90;;;;;;5088484;28;20394;-76
2023/04/09 06:58:35;;;;;;;51.93;35.73;;;9.20;99.90;;;;;;5087980;28;20398;-76
2023/04/09 07:01:01;;;;;;;50.10;36.35;;;9.20;99.90;;;;;;5086316;28;20405;-77
2023/04/09 07:03:27;;;;;;;52.00;36.03;;;9.20;99.90;;;;;;5088461;28;20958;-76
2023/04/09 07:05:53;;;;;;;51.50;35.87;;;9.20;99.90;;;;;;5087442;28;20417;-76
2023/04/09 07:08:21;;;;;;;51.13;36.87;;;9.20;99.90;;;;;;5086703;28;20402;-76
2023/04/09 07:10:47;;;;;;;51.90;36.15;;;9.30;99.90;;;;;;5086942;28;20938;-76
2023/04/09 07:13:12;;;;;;;53.05;36.83;;;9.30;99.90;;;;;;5087033;28;20401;-76
2023/04/09 07:15:38;;;;;;;49.07;34.57;;;9.30;99.90;;;;;;5086787;28;20405;-77
2023/04/09 07:18:05;;;;;;;51.28;35.47;;;9.30;99.90;;;;;;5086595;28;20424;-76
2023/04/09 07:20:30;;;;;;;48.60;35.00;;;9.40;99.90;;;;;;5074533;28;20407;-77
2023/04/09 07:22:56;;;;;;;49.85;35.40;;;9.30;99.90;;;;;;5094012;28;20434;-77
2023/04/09 07:25:21;;;;;;;50.53;34.13;;;9.30;99.90;;;;;;5103164;28;20397;-76
2023/04/09 07:27:48;;;;;;;45.43;32.07;;;9.30;99.90;;;;;;5105940;28;20396;-77
2023/04/09 07:30:14;;;;;;;41.20;29.70;;;9.40;99.90;;;;;;5091572;28;20408;-77
2023/04/09 07:32:39;;;;;;;41.23;30.33;;;9.40;99.90;;;;;;5106582;28;20407;-77
2023/04/09 07:35:08;;;;;;;40.67;29.08;;;9.50;99.90;;;;;;5093667;28;20412;-75
2023/04/09 07:37:34;;;;;;;36.50;27.02;;;9.60;99.90;;;;;;5109072;28;20408;-75
2023/04/09 07:40:00;;;;;;;38.35;27.00;;;9.70;99.90;;;;;;5089099;28;20400;-75
2023/04/09 07:42:27;;;;;;;38.10;26.70;;;9.80;99.90;;;;;;5108312;28;20434;-75
2023/04/09 07:44:52;;;;;;;37.10;26.00;;;9.90;99.90;;;;;;5105181;28;20404;-76
2023/04/09 07:47:18;;;;;;;36.03;25.97;;;10.10;99.90;;;;;;5109044;28;20472;-76
2023/04/09 07:49:43;;;;;;;34.40;25.83;;;10.30;99.90;;;;;;5092968;28;20392;-76
2023/04/09 07:52:09;;;;;;;35.07;25.40;;;10.30;99.90;;;;;;5098743;28;20454;-76
2023/04/09 07:54:35;;;;;;;35.50;25.05;;;10.40;99.90;;;;;;5090367;28;20733;-76
2023/04/09 07:57:01;;;;;;;34.80;25.50;;;10.40;99.90;;;;;;5107260;28;20451;-76
2023/04/09 07:59:28;;;;;;;34.28;25.25;;;10.30;99.90;;;;;;5095699;28;20479;-76
2023/04/09 08:01:54;;;;;;;36.03;25.88;;;10.20;99.90;;;;;;5111007;28;20501;-76
2023/04/09 08:04:19;;;;;;;36.55;25.70;;;10.20;99.90;;;;;;5090319;28;20545;-76
2023/04/09 08:06:48;;;;;;;34.42;24.48;;;10.10;99.90;;;;;;5093301;28;20413;-77
2023/04/09 08:09:18;;;;;;;36.08;24.60;;;10.10;99.90;;;;;;5085008;28;20831;-77
2023/04/09 08:11:47;;;;;;;33.17;24.40;;;10.10;99.90;;;;;;5088501;28;20409;-76
2023/04/09 08:14:14;;;;;;;34.88;23.88;;;10.10;99.90;;;;;;5075410;28;20431;-77
2023/04/09 08:16:44;;;;;;;34.38;24.67;;;10.20;99.90;;;;;;5077489;28;20403;-77
2023/04/09 08:19:10;;;;;;;36.50;25.85;;;10.20;99.90;;;;;;5095496;28;20461;-77
2023/04/09 08:21:43;;;;;;;37.35;26.25;;;10.20;99.90;;;;;;5070181;28;20903;-77
2023/04/09 08:24:10;;;;;;;39.10;27.00;;;10.20;99.90;;;;;;5070159;28;20409;-77
2023/04/09 08:26:36;;;;;;;39.03;26.57;;;10.10;99.90;;;;;;5082524;28;20390;-78
2023/04/09 08:29:02;;;;;;;35.88;25.15;;;10.10;99.90;;;;;;5080948;28;20389;-77
2023/04/09 08:31:28;;;;;;;36.95;25.67;;;10.10;99.90;;;;;;5088109;28;20825;-78
2023/04/09 08:33:54;;;;;;;34.47;23.63;;;10.10;99.90;;;;;;5098369;28;20409;-77
2023/04/09 08:36:20;;;;;;;32.33;23.17;;;10.10;99.90;;;;;;5085977;28;20410;-78
2023/04/09 08:38:46;;;;;;;31.73;21.95;;;10.20;99.90;;;;;;5089300;28;20775;-77
2023/04/09 08:41:18;;;;;;;30.02;20.85;;;10.20;99.90;;;;;;5092836;28;20808;-77
2023/04/09 08:43:46;;;;;;;28.67;20.85;;;10.30;99.90;;;;;;5082626;28;20554;-77
2023/04/09 08:46:14;;;;;;;28.10;20.20;;;10.30;99.90;;;;;;5091897;28;20428;-77
2023/04/09 08:48:41;;;;;;;26.33;19.70;;;10.40;99.90;;;;;;5095783;28;20411;-78
2023/04/09 08:51:07;;;;;;;28.70;20.63;;;10.50;99.90;;;;;;5097407;27;20411;-77
2023/04/09 08:53:34;;;;;;;26.27;18.80;;;10.60;99.90;;;;;;5081557;28;20752;-78
2023/04/09 08:56:00;;;;;;;29.38;20.13;;;10.70;99.90;;;;;;5090727;28;20454;-78
2023/04/09 08:58:26;;;;;;;28.70;19.95;;;10.90;99.90;;;;;;5090767;28;20406;-77
2023/04/09 09:00:52;;;;;;;28.20;20.37;;;11.00;99.90;;;;;;5076663;28;20524;-74
2023/04/09 09:03:17;;;;;;;27.80;20.30;;;11.10;99.90;;;;;;5087296;28;20826;-75
2023/04/09 09:05:44;;;;;;;27.10;19.37;;;11.40;99.90;;;;;;5093003;28;20403;-76
2023/04/09 09:08:22;;;;;;;27.98;19.83;;;11.60;99.90;;;;;;5092575;28;20460;-75
2023/04/09 09:10:48;;;;;;;27.48;19.65;;;11.70;99.90;;;;;;5092053;28;20414;-76
2023/04/09 09:13:24;;;;;;;30.00;20.53;;;11.70;99.90;;;;;;5084088;28;20928;-76
2023/04/09 09:15:54;;;;;;;29.13;21.13;;;11.90;99.90;;;;;;5096171;28;20478;-76
2023/04/09 09:18:35;;;;;;;28.85;21.20;;;12.00;99.90;;;;;;5083785;28;20503;-76
2023/04/09 09:21:14;;;;;;;29.05;21.13;;;12.00;99.90;;;;;;5106852;28;20396;-75
2023/04/09 09:23:41;;;;;;;30.45;21.85;;;12.00;99.90;;;;;;5086400;28;20472;-76
2023/04/09 09:26:17;;;;;;;29.35;21.58;;;11.90;99.90;;;;;;5107237;28;20792;-76
2023/04/09 09:28:45;;;;;;;29.27;20.83;;;12.20;99.90;;;;;;5097563;28;20413;-76
2023/04/09 09:31:12;;;;;;;28.98;21.95;;;12.80;99.90;;;;;;5091237;28;20444;-76
2023/04/09 09:33:38;;;;;;;27.92;21.33;;;13.60;99.90;;;;;;5099161;28;20781;-76
2023/04/09 09:36:04;;;;;;;28.25;21.67;;;13.70;99.90;;;;;;5103748;28;20474;-76
2023/04/09 09:38:31;;;;;;;30.50;23.80;;;13.60;99.90;;;;;;5091164;28;20877;-76
2023/04/09 09:40:57;;;;;;;30.67;22.80;;;13.60;99.90;;;;;;5088850;28;20400;-74
2023/04/09 09:43:23;;;;;;;29.93;23.10;;;13.60;99.90;;;;;;5097945;28;20453;-74
2023/04/09 09:45:49;;;;;;;32.30;23.00;;;13.60;99.90;;;;;;5101488;28;20416;-73
2023/04/09 09:48:15;;;;;;;29.75;22.63;;;13.70;99.90;;;;;;5096828;28;20473;-74
2023/04/09 09:50:41;;;;;;;31.02;23.17;;;13.80;99.90;;;;;;5099556;28;20409;-74
2023/04/09 09:53:09;;;;;;;30.88;23.27;;;13.90;99.90;;;;;;5086981;28;20425;-75
2023/04/09 09:55:41;;;;;;;30.33;23.23;;;14.30;99.90;;;;;;5091495;28;20402;-75
2023/04/09 09:58:14;;;;;;;29.02;22.65;;;14.60;99.90;;;;;;5096113;28;20610;-73
2023/04/09 10:00:41;;;;;;;27.33;21.42;;;14.50;99.90;;;;;;5074493;28;20400;-72
2023/04/09 10:03:14;;;;;;;36.00;27.10;;;14.40;99.90;;;;;;5102253;28;20437;-73
2023/04/09 10:05:41;;;;;;;30.30;23.30;;;14.90;99.90;;;;;;5102956;28;20861;-74
2023/04/09 10:08:08;;;;;;;26.52;20.23;;;15.10;99.90;;;;;;5092927;28;20410;-75
2023/04/09 10:10:35;;;;;;;26.63;21.27;;;14.70;99.90;;;;;;5094008;28;20484;-75
2023/04/09 10:13:01;;;;;;;26.48;20.80;;;14.50;99.90;;;;;;5085305;28;20547;-73
2023/04/09 10:15:28;;;;;;;27.10;21.13;;;14.40;99.90;;;;;;5095508;28;20437;-73
2023/04/09 10:17:56;;;;;;;25.10;20.17;;;14.50;99.90;;;;;;5087659;28;20934;-77
2023/04/09 10:20:27;;;;;;;25.52;20.25;;;14.40;99.90;;;;;;5090425;28;21020;-74
2023/04/09 10:22:54;;;;;;;29.25;23.15;;;14.40;99.90;;;;;;5090287;28;20939;-74
2023/04/09 10:25:19;;;;;;;28.42;22.50;;;14.40;99.90;;;;;;5094247;28;20400;-74
2023/04/09 10:27:47;;;;;;;29.55;22.70;;;14.80;99.90;;;;;;5090584;28;20398;-73
2023/04/09 10:30:36;;;;;;;28.02;21.63;;;15.00;99.90;;;;;;5095867;28;20408;-74
2023/04/09 10:33:09;;;;;;;29.27;20.27;;;15.00;99.90;;;;;;5094294;28;20417;-73
2023/04/09 10:35:35;;;;;;;28.73;21.90;;;15.10;99.90;;;;;;5083584;28;20424;-73
2023/04/09 10:38:01;;;;;;;28.92;21.75;;;15.00;99.90;;;;;;5093960;28;20473;-74
2023/04/09 10:40:27;;;;;;;26.98;21.73;;;15.00;99.90;;;;;;5090954;28;20958;-74
2023/04/09 10:42:56;;;;;;;29.58;21.33;;;15.50;99.90;;;;;;5095819;28;21004;-74
2023/04/09 10:45:22;;;;;;;26.35;19.80;;;15.50;99.90;;;;;;5090807;28;20889;-74
2023/04/09 10:47:50;;;;;;;25.05;19.38;;;15.50;99.90;;;;;;5096179;28;20487;-75
2023/04/09 10:50:29;;;;;;;25.80;20.80;;;15.60;99.90;;;;;;5088262;28;20453;-75
2023/04/09 10:52:57;;;;;;;24.30;19.30;;;15.60;99.90;;;;;;5076202;28;20461;-75
2023/04/09 10:55:46;;;;;;;25.17;18.92;;;15.50;99.90;;;;;;5098698;28;20408;-75
2023/04/09 10:58:12;;;;;;;25.70;19.15;;;15.60;99.90;;;;;;5088830;28;20450;-75
2023/04/09 11:00:43;;;;;;;24.73;19.70;;;15.70;99.90;;;;;;5099746;28;20451;-75
2023/04/09 11:03:23;;;;;;;24.42;19.20;;;15.70;99.90;;;;;;5080669;28;20490;-75
2023/04/09 11:06:09;;;;;;;25.17;20.17;;;15.50;99.90;;;;;;5106039;28;20401;-75
2023/04/09 11:08:37;;;;;;;24.55;19.65;;;15.30;99.90;;;;;;5084187;28;20414;-75
2023/04/09 11:11:03;;;;;;;25.00;20.43;;;15.50;99.90;;;;;;5104641;28;20426;-75
2023/04/09 11:13:31;;;;;;;25.05;20.23;;;16.10;99.90;;;;;;5100394;28;20402;-75
2023/04/09 11:15:57;;;;;;;25.05;18.33;;;16.20;99.90;;;;;;5105951;28;20040;-75
2023/04/09 11:18:27;;;;;;;25.83;18.67;;;16.40;99.90;;;;;;5099862;28;20485;-75
2023/04/09 11:20:58;;;;;;;23.75;18.40;;;17.20;99.90;;;;;;5093301;28;20456;-76
2023/04/09 11:23:24;;;;;;;22.83;18.13;;;17.70;99.90;;;;;;5098218;28;20426;-76
2023/04/09 11:25:51;;;;;;;22.10;18.25;;;17.70;99.90;;;;;;5103772;28;20392;-75
2023/04/09 11:28:17;;;;;;;24.33;20.05;;;17.50;99.90;;;;;;5097357;28;20414;-75
2023/04/09 11:30:42;;;;;;;25.73;20.75;;;17.60;99.90;;;;;;5103060;28;20402;-75
2023/04/09 11:33:09;;;;;;;24.33;19.70;;;17.50;99.90;;;;;;5097154;28;20471;-75
2023/04/09 11:35:35;;;;;;;20.17;17.25;;;17.70;99.90;;;;;;5102325;28;20404;-75
2023/04/09 11:38:05;;;;;;;20.10;16.20;;;17.70;99.90;;;;;;5096786;28;20471;-75
2023/04/09 11:40:31;;;;;;;21.38;16.70;;;18.00;99.90;;;;;;5088212;28;20404;-75
2023/04/09 11:42:56;;;;;;;23.13;19.37;;;18.20;99.90;;;;;;5095450;28;20429;-75
2023/04/09 11:45:24;;;;;;;;;;;18.10;99.90;;;;;;5103946;28;20097;-75
2023/04/09 11:47:50;;;;;;;;;;;17.70;99.90;;;;;;5096266;28;20435;-75
2023/04/09 11:50:15;;;;;;;;;;;17.30;99.90;;;;;;5103081;28;19920;-75
2023/04/09 11:52:41;;;;;;;;;;;17.10;99.90;;;;;;5075467;28;20420;-75
2023/04/09 11:55:10;;;;;;;;;;;17.70;99.90;;;;;;5102106;28;20014;-75
2023/04/09 11:57:45;;;;;;;21.67;16.90;;;18.30;99.90;;;;;;5101536;28;19949;-76
2023/04/09 12:00:11;;;;;;;;;;;18.80;99.90;;;;;;5100195;28;20040;-75
2023/04/09 12:02:37;;;;;;;;;;;19.20;99.90;;;;;;5107582;28;19920;-75
2023/04/09 12:05:03;;;;;;;;;;;19.50;99.90;;;;;;5105187;28;19919;-75
2023/04/09 12:07:36;;;;;;;;;;;19.40;99.00;;;;;;5106226;28;19920;-76
2023/04/09 12:10:02;;;;;;;;;;;19.40;99.90;;;;;;5104372;28;19930;-76
2023/04/09 12:12:28;;;;;;;;;;;19.20;99.90;;;;;;5105418;28;20286;-75
2023/04/09 12:14:55;;;;;;;;;;;18.70;99.90;;;;;;5103730;28;19976;-76
2023/04/09 12:17:21;;;;;;;;;;;18.40;99.90;;;;;;5094963;28;19965;-75
2023/04/09 12:19:49;;;;;;;;;;;18.30;99.80;;;;;;5104585;28;20293;-75
2023/04/09 12:22:15;;;;;;;;;;;18.10;99.60;;;;;;5109566;28;19919;-75
2023/04/09 12:24:40;;;;;;;;;;;18.20;99.90;;;;;;5096429;28;19934;-75
2023/04/09 12:27:06;;;;;;;;;;;18.70;99.90;;;;;;5108176;28;19973;-76
2023/04/09 12:29:32;;;;;;;;;;;19.10;99.80;;;;;;5096436;28;19975;-76
2023/04/09 12:31:57;;;;;;;;;;;19.40;98.00;;;;;;5097469;28;19920;-75
2023/04/09 12:34:23;;;;;;;;;;;19.90;98.60;;;;;;5106603;28;19927;-75
2023/04/09 12:36:48;;;;;;;;;;;20.10;97.30;;;;;;5107141;28;19926;-75
2023/04/09 12:39:14;;;;;;;;;;;19.90;96.30;;;;;;5096513;28;19966;-76
2023/04/09 12:41:40;;;;;;;;;;;19.90;96.30;;;;;;5108768;28;20301;-75